x

9449880 - Friday Harbor, Wa (frdw1) Weather Station

12:36am - Fri 20th Jan 2017 All times are PST. -8 hours from GMT.

  • Wind
    8mph, 14mph gusts
  • Sea Temp 46°f
  • 空気 Temp 46°f
  • Sea Pressure 995.2mb
  • 9449880 - Friday Harbor, Wa
  • 9449880 - Friday Harbor, Wa

More Historic Weather Station data

Upgrade to MSW Pro to gain access to the past 30 days of data for over 8000 Wavebouys and Weather Stations around the globe.

Join Pro

Comparision Forecast

View Surf forecast
   
Fri 01/20 12:36am 8 14 mph 995.2mb 46f 46f
12:30am 8 11 mph 995.3mb 46f 46f
12:24am 8 14 mph 995.4mb 46f 45f
12:18am 8 14 mph 995.4mb 46f 45f
12:12am 9 20 mph 995.5mb 46f 45f
12:06am 8 11 mph 995.6mb 46f 45f
12:00am 9 15 mph 995.7mb 46f 45f
Thu 01/19 11:36pm 8 13 mph 995.9mb 46f 45f
11:30pm 9 13 mph 996mb 46f 45f
11:24pm 7 13 mph 996.1mb 46f 45f
11:18pm 8 13 mph 996.2mb 46f 45f
11:12pm 7 11 mph 996.3mb 46f 45f
11:06pm 8 14 mph 996.3mb 46f 45f
11:00pm 6 8 mph 996.3mb 46f 45f
10:36pm 5 7 mph 996.4mb 46f 45f
10:30pm 3 7 mph 996.3mb 46f 45f
10:24pm 3 6 mph 996.3mb 46f 45f
10:18pm 5 7 mph 996.4mb 46f 45f
10:12pm 5 7 mph 996.5mb 46f 45f
10:06pm 5 8 mph 996.5mb 46f 45f
10:00pm 6 8 mph 996.5mb 46f 45f
9:36pm 3 6 mph 996.7mb 46f 44f
9:30pm 2 6 mph 996.8mb 46f 44f
9:24pm 2 5 mph 996.8mb 46f 44f
9:18pm 3 5 mph 996.8mb 46f 44f
9:12pm 3 6 mph 996.9mb 46f 44f
9:06pm 1 3 mph 996.9mb 46f 44f
9:00pm 3 6 mph 997mb 46f 44f
8:36pm 6 9 mph 997mb 46f 45f
8:30pm 6 9 mph 997mb 46f 45f
8:24pm 7 9 mph 997.1mb 46f 45f
8:18pm 6 8 mph 997mb 46f 45f
8:12pm 5 9 mph 997mb 46f 45f
8:06pm 6 13 mph 997mb 46f 45f
8:00pm 7 13 mph 997.1mb 46f 45f
7:36pm 7 10 mph 997.1mb 46f 45f
7:30pm 7 10 mph 997mb 46f 45f
7:24pm 7 9 mph 997.1mb 46f 45f
7:18pm 6 10 mph 997.1mb 46f 45f
7:12pm 6 10 mph 997mb 46f 45f
7:06pm 9 13 mph 997.1mb 46f 45f
7:00pm 8 13 mph 997mb 46f 45f
6:36pm 5 10 mph 997mb 46f 45f
6:30pm 7 11 mph 997mb 46f 45f
6:24pm 8 13 mph 997mb 46f 45f
6:18pm 9 14 mph 997mb 46f 45f
6:12pm 9 14 mph 997mb 46f 45f
6:06pm 8 14 mph 997.1mb 46f 45f
6:00pm 9 14 mph 997.1mb 46f 45f
5:36pm 9 14 mph 997.2mb 46f 45f
5:30pm 9 15 mph 997.1mb 46f 45f
5:24pm 9 14 mph 997.1mb 46f 45f
5:18pm 8 11 mph 997.1mb 46f 45f
5:12pm 7 13 mph 997.1mb 46f 45f
5:06pm 7 14 mph 997.1mb 46f 45f
5:00pm 7 14 mph 997.1mb 46f 45f
4:36pm 8 14 mph 997.1mb 46f 46f
4:30pm 8 11 mph 997mb 46f 46f
4:24pm 6 11 mph 997mb 46f 46f
4:18pm 8 15 mph 997mb 46f 46f
4:12pm 8 14 mph 997mb 46f 46f
4:06pm 9 16 mph 997mb 46f 46f
4:00pm 7 14 mph 997mb 46f 46f
3:36pm 7 16 mph 997mb 46f 46f
3:30pm 8 16 mph 997mb 46f 46f
3:24pm 8 11 mph 997mb 46f 47f
3:18pm 6 13 mph 997mb 46f 47f
3:12pm 8 11 mph 997.1mb 46f 47f
3:06pm 7 13 mph 997.1mb 46f 47f
3:00pm 7 13 mph 997.1mb 46f 47f
2:36pm 10 15 mph 997.2mb 46f 47f
2:30pm 9 14 mph 997.2mb 46f 47f
2:24pm 9 13 mph 997.2mb 46f 47f
2:18pm 8 14 mph 997.1mb 46f 47f
2:12pm 9 13 mph 997.1mb 46f 47f
2:06pm 9 14 mph 997.1mb 46f 47f
2:00pm 8 13 mph 997.1mb 46f 47f
1:36pm 5 9 mph 997.3mb 46f 47f
1:30pm 5 7 mph 997.3mb 46f 46f
1:24pm 2 5 mph 997.3mb 46f 46f
1:18pm 3 5 mph 997.4mb 46f 46f
1:12pm 5 6 mph 997.5mb 46f 46f
1:06pm 5 7 mph 997.5mb 46f 46f
1:00pm 5 6 mph 997.5mb 46f 46f
12:36pm 6 9 mph 997.6mb 46f 46f
12:30pm 5 8 mph 997.6mb 46f 46f
12:24pm 5 8 mph 997.5mb 46f 46f
12:18pm 3 7 mph 997.6mb 46f 46f
12:12pm 5 7 mph 997.6mb 46f 46f
12:06pm 5 7 mph 997.6mb 46f 46f
12:00pm 5 8 mph 997.7mb 46f 46f
11:36am 6 9 mph 997.7mb 46f 46f
11:30am 6 14 mph 997.7mb 46f 46f
11:24am 3 8 mph 997.6mb 46f 46f
11:18am 6 13 mph 997.6mb 46f 46f
11:12am 6 11 mph 997.7mb 46f 46f
11:06am 6 11 mph 997.7mb 46f 46f
11:00am 9 15 mph 997.8mb 46f 46f
10:36am 6 15 mph 997.7mb 46f 46f
10:30am 7 10 mph 997.8mb 46f 46f
10:24am 9 13 mph 997.8mb 46f 46f
10:18am 9 14 mph 997.7mb 46f 46f
10:12am 8 13 mph 997.8mb 46f 46f
10:06am 10 14 mph 997.8mb 46f 46f
10:00am 8 11 mph 997.8mb 46f 46f
9:36am 8 14 mph 997.9mb 46f 46f
9:30am 9 14 mph 997.9mb 46f 46f
9:24am 8 13 mph 998mb 46f 46f
9:18am 7 14 mph 997.9mb 46f 46f
9:12am 9 20 mph 997.9mb 46f 46f
9:06am 8 14 mph 997.9mb 46f 45f
9:00am 8 16 mph 997.9mb 46f 46f
8:36am 7 17 mph 997.5mb 46f 46f
8:30am 9 16 mph 997.4mb 46f 46f
8:24am 6 9 mph 997.3mb 46f 46f
8:18am 9 14 mph 997.2mb 46f 46f
8:12am 10 14 mph 997.1mb 46f 46f
8:06am 9 14 mph 997.1mb 46f 46f
8:00am 8 14 mph 997.1mb 46f 46f
7:36am 7 14 mph 997.2mb 46f 45f
7:30am 8 14 mph 997.1mb 46f 46f
7:24am 8 14 mph 997.1mb 46f 46f
7:18am 7 15 mph 997.2mb 46f 46f
7:12am 8 14 mph 997.1mb 46f 46f
7:06am 8 14 mph 996.9mb 46f 46f
7:00am 10 15 mph 996.8mb 46f 46f
6:36am 8 15 mph 996.8mb 46f 46f
6:30am 8 15 mph 996.8mb 46f 46f
6:24am 7 14 mph 996.7mb 46f 46f
6:18am 8 15 mph 996.6mb 46f 46f
6:12am 8 15 mph 996.4mb 46f 46f
6:06am 9 16 mph 996.4mb 46f 46f
6:00am 10 17 mph 996.2mb 46f 46f
5:36am 10 17 mph 996.2mb 46f 45f
5:30am 13 18 mph 996.3mb 46f 45f
5:24am 11 18 mph 996.3mb 46f 45f
5:18am 11 21 mph 996.1mb 46f 45f
5:12am 9 13 mph 996mb 46f 45f
5:06am 9 15 mph 996mb 46f 45f
5:00am 9 15 mph 995.8mb 46f 45f
4:36am 9 17 mph 995.7mb 46f 45f
4:30am 7 14 mph 995.6mb 46f 45f
4:24am 9 14 mph 995.6mb 46f 46f
4:18am 9 13 mph 995.5mb 46f 46f
4:12am 7 13 mph 995.6mb 46f 46f
4:06am 9 15 mph 995.6mb 46f 46f
4:00am 8 10 mph 995.6mb 46f 46f
3:36am 6 10 mph 995.4mb 46f 46f
3:30am 6 10 mph 995.2mb 46f 46f
3:24am 6 10 mph 995.3mb 46f 46f
3:18am 6 10 mph 995.3mb 46f 46f
3:12am 5 8 mph 995.5mb 46f 46f
3:06am 6 8 mph 995.4mb 46f 46f
3:00am 6 11 mph 995.4mb 46f 46f
2:36am 7 9 mph 995.1mb 46f 45f
2:30am 6 7 mph 995.1mb 46f 45f
2:24am 5 7 mph 995mb 46f 45f
2:18am 3 6 mph 994.9mb 46f 45f
2:12am 2 3 mph 994.8mb 46f 45f
2:06am 1 8 mph 994.8mb 46f 45f
2:00am 3 6 mph 994.9mb 46f 45f
1:36am 3 7 mph 994.4mb 46f 45f
1:30am 3 6 mph 994.3mb 46f 45f
1:24am 5 9 mph 994.2mb 46f 45f
1:18am 6 10 mph 994.3mb 46f 45f
1:12am 6 11 mph 994.2mb 46f 45f
1:06am 6 9 mph 994.1mb 46f 45f
1:00am 6 8 mph 993.8mb 46f 45f
12:54am 5 6 mph 993.7mb 46f 45f
12:48am 3 6 mph 993.4mb 46f 45f
12:36am 2 5 mph 992.9mb 46f 45f
12:30am 5 6 mph 992.6mb 46f 45f
12:24am 5 6 mph 992.5mb 46f 45f
12:18am 5 6 mph 992.3mb 46f 45f
12:12am  -  2 mph 992.1mb 46f 45f
12:06am 1 2 mph 992mb 46f 45f
12:00am  -  1 mph 992mb 46f 45f
Wed 01/18 11:54pm  -  1 mph 991.9mb 46f 45f
11:48pm  -  2 mph 991.8mb 46f 45f
11:36pm  -  2 mph 991.7mb 46f 45f
11:30pm  -  7 mph 991.6mb 46f 45f
11:24pm 5 10 mph 991.6mb 46f 46f
11:18pm 5 11 mph 991.5mb 46f 46f
11:12pm 8 13 mph 991.4mb 46f 46f
11:06pm 6 13 mph 991.2mb 46f 46f
11:00pm 7 10 mph 991mb 46f 46f
10:54pm 6 13 mph 990.9mb 46f 47f
10:48pm 10 17 mph 990.7mb 46f 47f
10:36pm 14 21 mph 990.4mb 46f 47f
10:30pm 15 22 mph 990.3mb 46f 47f
10:24pm 8 13 mph 990.2mb 46f 46f
10:18pm 9 16 mph 990.1mb 46f 46f
10:12pm 9 14 mph 990mb 46f 46f
10:06pm 10 15 mph 989.9mb 46f 47f
10:00pm 8 14 mph 989.8mb 46f 47f
9:54pm 10 14 mph 989.7mb 46f 47f
9:48pm 8 14 mph 989.6mb 46f 46f
9:36pm 8 11 mph 989.5mb 46f 46f
9:30pm 9 13 mph 989.4mb 46f 46f
9:24pm 9 11 mph 989.4mb 46f 46f
9:18pm 7 10 mph 989.3mb 46f 46f
9:12pm 7 13 mph 989.4mb 46f 46f
9:06pm 7 13 mph 989.6mb 46f 46f
9:00pm 7 10 mph 989.5mb 46f 46f
8:36pm 7 10 mph 989.7mb 46f 46f
8:30pm 6 9 mph 989.7mb 46f 47f
8:24pm 6 9 mph 989.6mb 46f 47f
8:18pm 9 13 mph 989.6mb 46f 47f
8:12pm 6 8 mph 989.5mb 46f 47f
8:06pm 2 5 mph 989.4mb 46f 47f
8:00pm 2 5 mph 989.3mb 46f 47f
7:54pm 5 7 mph 989.3mb 46f 47f
7:48pm 5 7 mph 989.3mb 46f 47f
7:36pm 3 7 mph 989.3mb 46f 47f
7:30pm  -  2 mph 989.4mb 46f 47f
7:24pm 2 5 mph 989.3mb 46f 47f
7:18pm 2 3 mph 989.3mb 46f 47f
7:12pm 3 5 mph 989.3mb 46f 47f
7:06pm 3 6 mph 989.4mb 46f 47f
7:00pm 3 6 mph 989.5mb 46f 47f
6:54pm 5 6 mph 989.5mb 46f 47f
6:48pm 6 7 mph 989.6mb 46f 47f
6:36pm 6 8 mph 989.8mb 46f 47f
6:30pm 6 7 mph 989.8mb 46f 48f
6:24pm 7 9 mph 989.9mb 46f 48f
6:18pm 6 9 mph 989.9mb 46f 48f
6:12pm 6 8 mph 989.9mb 46f 48f
6:06pm 6 8 mph 989.9mb 46f 48f
6:00pm 6 7 mph 989.9mb 46f 48f
5:54pm 6 8 mph 990.1mb 46f 48f
5:48pm 6 8 mph 990.2mb 46f 48f
5:36pm 6 7 mph 990.1mb 46f 49f
5:30pm 6 9 mph 990.2mb 46f 49f
5:24pm 5 7 mph 990.4mb 46f 50f
5:18pm 5 9 mph 990.3mb 46f 50f
5:12pm 6 10 mph 990.3mb 46f 50f
5:06pm 6 14 mph 990.2mb 46f 51f
5:00pm 7 10 mph 990.3mb 46f 51f
4:54pm 7 13 mph 990.4mb 46f 51f
4:48pm 6 10 mph 990.4mb 46f 51f
4:36pm 7 15 mph 990.5mb 46f 51f
4:30pm 6 11 mph 990.6mb 46f 51f
4:24pm 7 14 mph 990.6mb 46f 51f
4:18pm 7 13 mph 990.6mb 46f 51f
4:12pm 7 15 mph 990.5mb 46f 51f
4:06pm 10 16 mph 990.4mb 46f 51f
4:00pm 9 15 mph 990.3mb 46f 52f
3:54pm 10 15 mph 990.5mb 46f 52f
3:48pm 9 18 mph 990.8mb 46f 52f
3:36pm 11 17 mph 990.9mb 46f 52f
3:30pm 10 15 mph 991mb 46f 52f
3:24pm 9 17 mph 991mb 46f 52f
3:18pm 14 18 mph 991mb 46f 52f
3:12pm 10 18 mph 991mb 46f 52f
3:06pm 11 17 mph 990.9mb 46f 52f
3:00pm 9 14 mph 991mb 46f 52f
2:36pm 11 17 mph 991.2mb 46f 52f
2:30pm 13 22 mph 991.2mb 46f 52f
2:24pm 10 23 mph 991.3mb 46f 52f
2:18pm 11 20 mph 991.3mb 46f 52f
2:12pm 10 20 mph 991.2mb 46f 52f
2:06pm 14 18 mph 991.3mb 46f 53f
2:00pm 13 22 mph 991.5mb 46f 52f
1:54pm 14 22 mph 991.4mb 46f 52f
1:48pm 13 22 mph 991.6mb 46f 52f
1:36pm 13 21 mph 991.7mb 46f 52f
1:30pm 13 16 mph 991.5mb 46f 52f
1:24pm 8 16 mph 991.3mb 46f 51f
1:18pm 6 14 mph 990.9mb 46f 51f
1:12pm 11 17 mph 991.1mb 46f 51f
1:06pm 8 14 mph 991mb 46f 51f
1:00pm 9 15 mph 991.1mb 46f 51f
12:54pm 11 17 mph 991.3mb 46f 51f
12:48pm 7 11 mph 991.2mb 46f 51f
12:36pm 11 17 mph 991.5mb 46f 51f
12:30pm 14 18 mph 991.6mb 46f 51f
12:24pm 13 20 mph 991.4mb 46f 51f
12:18pm 13 20 mph 991.5mb 46f 51f
12:12pm 14 20 mph 991.6mb 46f 51f
12:06pm 14 20 mph 991.5mb 46f 51f
12:00pm 13 17 mph 991.2mb 46f 51f
11:54am 14 22 mph 991.4mb 46f 51f
11:48am 13 20 mph 991.8mb 46f 51f
11:36am 15 20 mph 991.5mb 46f 51f
11:30am 13 23 mph 991.4mb 46f 51f
11:24am 13 18 mph 991.3mb 46f 51f
11:18am 16 23 mph 991.2mb 46f 51f
11:12am 15 21 mph 990.9mb 46f 51f
11:06am 11 20 mph 991.1mb 46f 51f
11:00am 11 20 mph 991mb 46f 51f
10:54am 14 22 mph 990.9mb 46f 51f
10:48am 11 23 mph 990.9mb 46f 51f
10:36am 17 24 mph 991.1mb 46f 51f
10:30am 18 24 mph 991.1mb 46f 51f
10:24am 16 28 mph 991mb 46f 51f
10:18am 14 22 mph 990.8mb 46f 51f
10:12am 14 23 mph 990.8mb 46f 50f
10:06am 15 23 mph 990.6mb 46f 50f
10:00am 15 24 mph 990.3mb 46f 50f
9:54am 14 25 mph 990.4mb 46f 50f
9:48am 20 30 mph 990.3mb 46f 50f
9:36am 11 18 mph 990.1mb 46f 49f
9:30am 15 21 mph 990mb 46f 49f
9:24am 14 20 mph 989.9mb 46f 49f
9:18am 16 23 mph 990mb 46f 49f
9:12am 13 20 mph 990mb 46f 49f
9:06am 14 21 mph 990.2mb 46f 49f
9:00am 15 21 mph 989.8mb 46f 49f
8:54am 14 17 mph 989.9mb 46f 49f
8:48am 15 24 mph 990mb 46f 49f
8:36am 13 21 mph 990.3mb 46f 49f
8:30am 15 26 mph 990.4mb 46f 49f
8:24am 17 24 mph 990.4mb 46f 49f
8:18am 17 24 mph 990.4mb 46f 50f
8:12am 14 21 mph 990.5mb 46f 50f
8:06am 10 16 mph 990.4mb 46f 50f
8:00am 14 20 mph 990.2mb 46f 50f
7:54am 11 17 mph 990.1mb 46f 49f
7:48am 9 16 mph 990.2mb 46f 49f
7:36am 14 21 mph 990.5mb 46f 48f
7:30am 11 21 mph 990.3mb 46f 48f
7:24am 14 20 mph 990.2mb 46f 48f
7:18am 14 18 mph 990.4mb 46f 48f
7:12am 15 20 mph 990.5mb 46f 48f
7:06am 11 20 mph 990.8mb 46f 48f
7:00am 14 18 mph 991mb 46f 48f
6:54am 11 17 mph 991.2mb 46f 48f
6:48am 10 16 mph 991.4mb 46f 49f
6:36am 11 17 mph 991.7mb 46f 49f
6:30am 10 15 mph 991.8mb 46f 49f
6:24am 9 17 mph 992.1mb 46f 49f
6:18am 10 21 mph 992.3mb 46f 49f
6:12am 7 17 mph 992.5mb 46f 49f
6:06am 11 18 mph 992.6mb 46f 49f
6:00am 13 25 mph 992.7mb 46f 49f
5:54am 13 22 mph 992.6mb 46f 49f
5:48am 11 17 mph 992.7mb 46f 49f
5:36am 10 20 mph 992.7mb 46f 50f
5:30am 14 25 mph 992.8mb 46f 50f
5:24am 13 23 mph 992.9mb 46f 50f
5:18am 14 25 mph 992.9mb 46f 50f
5:12am 13 23 mph 993mb 46f 50f
5:06am 11 15 mph 993.1mb 46f 50f
5:00am 10 22 mph 993.1mb 46f 50f
4:54am 11 18 mph 993.3mb 46f 50f
4:48am 11 20 mph 993.3mb 46f 50f
4:36am 11 16 mph 993.3mb 46f 50f
4:30am 13 20 mph 993.2mb 46f 50f
4:24am 14 23 mph 993.5mb 46f 50f
4:18am 14 20 mph 993.6mb 46f 50f
4:12am 11 20 mph 993.5mb 46f 50f
4:06am 10 16 mph 993.6mb 46f 50f
4:00am 9 18 mph 993.6mb 46f 50f
3:54am 13 22 mph 993.6mb 46f 50f
3:48am 11 18 mph 993.8mb 46f 50f
3:36am 8 17 mph 994.1mb 46f 49f
3:30am 9 15 mph 994.1mb 46f 49f
3:24am 13 18 mph 994.3mb 46f 50f
3:18am 9 15 mph 994.4mb 46f 50f
3:12am 13 17 mph 994.3mb 46f 50f
3:06am 9 14 mph 994.1mb 46f 49f
3:00am 9 18 mph 994.1mb 46f 49f
2:54am 11 18 mph 994.3mb 46f 49f
2:48am 9 16 mph 994.3mb 46f 49f
2:36am 11 21 mph 994.3mb 46f 49f
2:30am 11 20 mph 994.7mb 46f 49f
2:24am 11 22 mph 994.8mb 46f 49f
2:18am 14 21 mph 994.8mb 46f 49f
2:12am 15 23 mph 994.5mb 46f 49f
2:06am 14 22 mph 994.9mb 46f 49f
2:00am 13 21 mph 994.7mb 46f 49f
1:54am 15 21 mph 994.3mb 46f 49f
1:48am 13 22 mph 994.3mb 46f 49f
1:36am 15 21 mph 994.4mb 46f 49f
1:30am 14 23 mph 994.7mb 46f 49f
1:24am 11 22 mph 994.8mb 46f 49f
1:18am 14 23 mph 994.8mb 46f 49f
1:12am 9 18 mph 994.8mb 46f 49f
1:06am 13 23 mph 994.8mb 46f 49f
1:00am 9 17 mph 994.9mb 46f 49f
12:54am 10 24 mph 994.8mb 46f 49f
12:48am 15 22 mph 995mb 46f 49f
12:36am 15 31 mph 995.3mb 46f 49f
12:30am 15 25 mph 995.3mb 46f 49f
12:24am 17 24 mph 995mb 46f 49f
12:18am 18 25 mph 994.7mb 46f 49f
12:12am 16 25 mph 994.9mb 46f 49f
12:06am 16 21 mph 995.4mb 46f 49f
12:00am 14 28 mph 995.4mb 46f 49f
Tue 01/17 11:54pm 16 29 mph 995.2mb 46f 49f
11:48pm 15 28 mph 995.1mb 46f 49f
11:36pm 14 24 mph 995.5mb 46f 49f
11:30pm 13 22 mph 995.5mb 46f 49f
11:24pm 13 29 mph 995.8mb 46f 49f
11:18pm 14 21 mph 995.4mb 46f 49f
11:12pm 15 24 mph 995.5mb 46f 49f
11:06pm 15 23 mph 995.5mb 46f 49f
11:00pm 14 28 mph 995.4mb 46f 49f
10:54pm 15 25 mph 995.3mb 46f 49f
10:48pm 16 28 mph 995.3mb 46f 49f
10:36pm 17 25 mph 994.7mb 46f 49f
10:30pm 15 25 mph 994.7mb 46f 49f
10:24pm 16 25 mph 995.1mb 46f 49f
10:18pm 16 25 mph 995.1mb 46f 49f
10:12pm 15 28 mph 995.9mb 46f 49f
10:06pm 16 25 mph 995.9mb 46f 49f
10:00pm 17 25 mph 996.1mb 46f 48f
9:54pm 15 23 mph 996mb 46f 48f
9:48pm 14 20 mph 996.3mb 46f 48f
9:36pm 16 26 mph 995.9mb 46f 49f
9:30pm 17 26 mph 995.9mb 46f 49f
9:24pm 17 25 mph 995.8mb 46f 49f
9:18pm 14 24 mph 995.7mb 46f 49f
9:12pm 18 29 mph 995.6mb 46f 49f
9:06pm 16 25 mph 995.7mb 46f 49f
9:00pm 14 24 mph 995.6mb 46f 49f
8:54pm 15 28 mph 995.3mb 46f 49f
8:48pm 15 23 mph 995.2mb 46f 49f
8:36pm 20 29 mph 995.4mb 46f 49f
8:30pm 15 30 mph 995.4mb 46f 49f
8:24pm 18 26 mph 995.3mb 46f 49f
8:18pm 16 26 mph 995.2mb 46f 49f
8:12pm 17 28 mph 995.4mb 46f 49f
8:06pm 18 31 mph 995.3mb 46f 49f
8:00pm 21 32 mph 995.4mb 46f 49f
7:54pm 16 26 mph 995.4mb 46f 49f
7:48pm 16 28 mph 995.2mb 46f 49f
7:36pm 18 29 mph 995.1mb 46f 49f
7:30pm 16 29 mph 995.3mb 46f 48f
7:24pm 18 28 mph 995.6mb 46f 48f
7:18pm 17 26 mph 995.6mb 46f 48f
7:12pm 15 23 mph 995.6mb 46f 48f
7:06pm 18 29 mph 995.3mb 46f 48f
7:00pm 16 25 mph 995.4mb 46f 48f
6:54pm 18 26 mph 995.8mb 46f 48f
6:48pm 20 29 mph 995.7mb 46f 48f
6:36pm 18 26 mph 995.7mb 46f 47f
6:30pm 16 26 mph 995.6mb 46f 48f
6:24pm 18 29 mph 995.6mb 46f 48f
6:18pm 20 30 mph 995.6mb 46f 48f
6:12pm 21 28 mph 995.6mb 46f 48f
6:06pm 18 34 mph 995.5mb 46f 48f
6:00pm 18 31 mph 995.5mb 46f 48f
5:54pm 17 26 mph 995.8mb 46f 48f
5:48pm 20 33 mph 995.9mb 46f 49f
5:36pm 18 25 mph 995.8mb 46f 49f
5:30pm 21 31 mph 995.7mb 46f 49f
5:24pm 21 31 mph 995.7mb 46f 49f
5:18pm 20 31 mph 995.9mb 46f 49f
5:12pm 23 38 mph 996.1mb 46f 49f
5:06pm 21 32 mph 996.1mb 46f 49f
5:00pm 17 28 mph 996.3mb 46f 48f
4:54pm 20 31 mph 996.2mb 46f 48f
4:48pm 15 31 mph 996.2mb 46f 48f
4:36pm 15 22 mph 996.8mb 46f 48f
4:30pm 14 28 mph 996.8mb 46f 47f
4:24pm 16 25 mph 997mb 46f 47f
4:18pm 16 26 mph 997mb 46f 47f
4:12pm 13 25 mph 997.1mb 46f 47f
4:06pm 18 30 mph 997.2mb 46f 48f
4:00pm 20 30 mph 997.4mb 46f 48f
3:54pm 16 29 mph 997.5mb 46f 48f
3:48pm 17 23 mph 997.3mb 46f 48f
3:36pm 20 30 mph 997.7mb 46f 48f
3:30pm 17 25 mph 997.7mb 46f 48f
3:24pm 18 28 mph 998mb 46f 48f
3:18pm 14 28 mph 998.5mb 46f 47f
3:12pm 16 30 mph 998.8mb 46f 47f
3:06pm 16 26 mph 998.8mb 46f 47f
3:00pm 16 26 mph 999.3mb 46f 48f
2:54pm 15 24 mph 999.4mb 46f 48f
2:48pm 17 28 mph 999.2mb 46f 48f
2:36pm 15 26 mph 999.4mb 46f 48f
2:30pm 20 29 mph 999.6mb 46f 48f
2:24pm 16 29 mph 999.9mb 46f 48f
2:18pm 17 28 mph 1000.2mb 46f 48f
2:12pm 20 30 mph 1000.5mb 46f 48f
2:06pm 21 28 mph 1000.7mb 46f 49f
2:00pm 21 31 mph 1000.7mb 46f 49f
1:54pm 16 25 mph 1000.7mb 46f 49f
1:48pm 16 25 mph 1001mb 46f 49f
1:36pm 10 17 mph 1001mb 46f 49f
1:30pm 11 18 mph 1001.2mb 46f 49f
1:24pm 15 21 mph 1001.4mb 46f 49f
1:18pm 14 24 mph 1001.7mb 46f 49f
1:12pm 14 23 mph 1001.8mb 46f 49f
1:06pm 11 21 mph 1002mb 46f 50f
1:00pm 16 24 mph 1002.2mb 46f 50f
12:54pm 16 24 mph 1002.5mb 46f 50f
12:48pm 14 22 mph 1002.4mb 46f 51f
12:36pm 15 23 mph 1002.7mb 46f 51f
12:30pm 15 26 mph 1002.7mb 46f 51f
12:24pm 15 24 mph 1002.7mb 46f 52f
12:18pm 14 26 mph 1002.9mb 46f 52f
12:12pm 17 25 mph 1002.9mb 46f 52f
12:06pm 16 26 mph 1003.1mb 46f 52f
12:00pm 14 22 mph 1003.1mb 46f 52f
11:54am 16 28 mph 1003.2mb 46f 52f
11:48am 14 24 mph 1003.1mb 46f 52f
11:36am 16 29 mph 1003.3mb 46f 52f
11:30am 17 26 mph 1003.3mb 46f 52f
11:24am 17 25 mph 1003.3mb 46f 52f
11:18am 17 28 mph 1003.8mb 46f 52f
11:12am 14 24 mph 1003.4mb 46f 51f
11:06am 17 26 mph 1003.5mb 46f 51f
11:00am 17 22 mph 1003.6mb 46f 51f
10:54am 16 26 mph 1003.6mb 46f 51f
10:48am 16 23 mph 1003.7mb 46f 51f
10:36am 16 25 mph 1003.4mb 46f 51f
10:30am 15 22 mph 1003.9mb 46f 51f
10:24am 15 23 mph 1003.6mb 46f 51f
10:18am 14 22 mph 1003.7mb 46f 51f
10:12am 14 24 mph 1003.6mb 46f 51f
10:06am 17 26 mph 1003.3mb 46f 51f
10:00am 15 24 mph 1003.7mb 46f 51f
9:54am 18 30 mph 1003.4mb 46f 50f
9:48am 20 29 mph 1003.3mb 46f 51f
9:36am 17 26 mph 1003.3mb 46f 50f
9:30am 16 24 mph 1003.2mb 46f 50f
9:24am 20 31 mph 1003mb 46f 50f
9:18am 17 30 mph 1003.3mb 46f 50f
9:12am 17 28 mph 1002.9mb 46f 50f
9:06am 15 33 mph 1003.2mb 46f 50f
9:00am 18 33 mph 1003.4mb 46f 50f
8:54am 21 29 mph 1003.3mb 46f 50f
8:48am 18 28 mph 1003.3mb 46f 50f
8:36am 16 30 mph 1003.4mb 46f 51f
8:30am 15 23 mph 1003.4mb 46f 51f
8:24am 18 29 mph 1003.7mb 46f 51f
8:18am 18 28 mph 1003.5mb 46f 51f
8:12am 16 28 mph 1003.5mb 46f 51f
8:06am 15 25 mph 1003.6mb 46f 51f
8:00am 16 28 mph 1003.6mb 46f 51f
7:54am 17 33 mph 1003.6mb 46f 51f
7:48am 16 26 mph 1003.6mb 46f 51f
7:36am 17 24 mph 1003.7mb 46f 50f
7:30am 15 24 mph 1004mb 46f 50f
7:24am 14 23 mph 1004.2mb 46f 49f
7:18am 14 22 mph 1004.2mb 46f 49f
7:12am 14 21 mph 1004.5mb 46f 49f
7:06am 15 29 mph 1004.8mb 46f 49f
7:00am 16 25 mph 1004.7mb 46f 49f
6:54am 14 23 mph 1004.7mb 46f 49f
6:48am 16 22 mph 1004.7mb 46f 49f
6:36am 14 23 mph 1005mb 46f 49f
6:30am 14 20 mph 1005.1mb 46f 49f
6:24am 16 23 mph 1005.4mb 46f 49f
6:18am 9 16 mph 1005.5mb 46f 49f
6:12am 10 17 mph 1005.6mb 46f 49f
6:06am 13 21 mph 1005.8mb 46f 50f
6:00am 8 11 mph 1005.7mb 46f 49f
5:54am 8 18 mph 1005.9mb 46f 48f
5:48am 10 16 mph 1006.1mb 46f 49f
5:36am 11 18 mph 1006.5mb 46f 49f
5:30am 14 22 mph 1006.7mb 46f 50f
5:24am 13 17 mph 1006.7mb 46f 49f
5:18am 10 15 mph 1006.8mb 46f 49f
5:12am 8 15 mph 1007mb 46f 49f
5:06am 9 13 mph 1007.1mb 46f 49f
5:00am 5 9 mph 1007.1mb 46f 49f
4:54am 3 5 mph 1007.2mb 46f 49f
4:48am 5 6 mph 1007.5mb 46f 49f
4:36am 2 5 mph 1007.6mb 46f 48f
4:30am 5 6 mph 1007.4mb 46f 48f
4:24am 7 10 mph 1007.5mb 46f 48f
4:18am 9 14 mph 1007.6mb 46f 48f
4:12am 13 17 mph 1007.8mb 46f 48f
4:06am 9 13 mph 1007.9mb 46f 48f
4:00am 5 8 mph 1008mb 46f 47f
3:54am 1 5 mph 1008.3mb 46f 46f
3:48am 5 8 mph 1007.9mb 46f 46f
3:36am 3 6 mph 1008.7mb 46f 46f
3:30am 3 6 mph 1008.9mb 46f 46f
3:24am  -  2 mph 1009.2mb 46f 46f
3:18am 1 6 mph 1009.6mb 46f 46f
3:12am 3 7 mph 1009.8mb 46f 46f
3:06am  -  2 mph 1009.9mb 46f 46f
3:00am  -  2 mph 1009.9mb 46f 46f
2:54am 1 3 mph 1009.9mb 46f 46f
2:48am 3 7 mph 1009.6mb 46f 46f
2:36am 1 3 mph 1009.9mb 46f 47f
2:30am 1 3 mph 1009.8mb 46f 47f
2:24am 2 3 mph 1010.1mb 46f 47f
2:18am 1 3 mph 1010.1mb 46f 47f
2:12am 1 3 mph 1010.2mb 46f 46f
2:06am 3 6 mph 1010.2mb 46f 47f
2:00am 5 7 mph 1010.3mb 46f 47f
1:54am 5 8 mph 1010.2mb 46f 47f
1:48am 9 11 mph 1010.2mb 46f 47f
1:36am 5 9 mph 1010mb 46f 49f
1:30am 1 3 mph 1010mb 46f 49f
1:24am 1 2 mph 1010.3mb 46f 49f
1:18am 2 5 mph 1010.1mb 46f 48f
1:12am 5 7 mph 1010.1mb 46f 48f
1:06am 6 7 mph 1010.1mb 46f 49f
1:00am 6 10 mph 1010.2mb 46f 49f
12:54am 7 9 mph 1010.3mb 46f 49f
12:48am 7
mph
1010.3mb 46f 49f
12:36am 5 8 mph 1010.7mb 46f 49f
12:30am 9 11 mph 1010.6mb 46f 49f
12:24am 6 7 mph 1010.8mb 46f 49f
12:18am 6 10 mph 1010.8mb 46f 49f
12:12am 8 11 mph 1010.8mb 46f 49f
12:06am 7 11 mph 1010.8mb 46f 49f
12:00am 6 10 mph 1010.8mb 46f 49f
Mon 01/16 11:54pm 6 10 mph 1011mb 46f 49f
11:48pm 7 10 mph 1011.1mb 46f 49f
11:36pm 9 14 mph 1011.2mb 46f 49f
11:30pm 8 11 mph 1011.2mb 46f 49f
11:24pm 7 8 mph 1011.3mb 46f 49f
11:18pm 7 11 mph 1011.5mb 46f 49f
11:12pm 8 10 mph 1011.5mb 46f 49f
11:06pm 7 11 mph 1011.6mb 46f 49f
11:00pm 7 10 mph 1011.6mb 46f 48f
10:54pm 6 10 mph 1011.7mb 46f 48f
10:48pm 6 7 mph 1011.7mb 46f 48f
10:36pm 5 7 mph 1011.9mb 46f 47f
10:30pm 3 7 mph 1012mb 46f 47f
10:24pm 5 7 mph 1012.1mb 46f 47f
10:18pm 6 10 mph 1012.1mb 46f 47f
10:12pm 7 11 mph 1012.2mb 46f 46f
10:06pm 5 6 mph 1012.2mb 46f 45f
10:00pm 6 7 mph 1012.4mb 46f 45f
9:54pm 5 6 mph 1012.9mb 46f 45f
9:48pm 7 9 mph 1012.9mb 46f 45f
9:36pm 7 9 mph 1013.2mb 46f 45f
9:30pm 8 10 mph 1013.3mb 46f 45f
9:24pm 7 9 mph 1013.2mb 46f 44f
9:18pm 7 8 mph 1013.5mb 46f 44f
9:12pm 6 8 mph 1013.6mb 46f 44f
9:06pm 6
mph
1013.8mb 46f 44f
9:00pm 5 8 mph 1013.8mb 46f 44f
8:54pm 6 7 mph 1013.8mb 46f 44f
8:48pm 5 6 mph 1014.1mb 46f 44f
8:36pm 2 5 mph 1014.4mb 46f 43f
8:30pm 3 6 mph 1014.3mb 46f 43f
8:24pm 3 5 mph 1014.2mb 46f 43f
8:18pm 6 7 mph 1014mb 46f 43f
8:12pm 6 8 mph 1013.9mb 46f 43f
8:06pm 7 9 mph 1013.7mb 46f 43f
8:00pm 8 9 mph 1013.9mb 46f 43f
7:54pm 8 9 mph 1013.9mb 46f 43f
7:48pm 6 9 mph 1013.9mb 46f 43f
7:36pm 7 10 mph 1013.8mb 46f 42f
7:30pm 6 8 mph 1014mb 46f 42f
7:24pm 6 7 mph 1014.1mb 46f 43f
7:18pm 5 6 mph 1014.4mb 46f 42f
7:12pm 2 5 mph 1014.2mb 46f 42f
7:06pm 2 6 mph 1014.5mb 46f 42f
7:00pm 2 9 mph 1014.7mb 46f 42f
6:54pm 6 7 mph 1014.8mb 46f 42f
6:48pm 5 9 mph 1015.2mb 46f 42f
6:36pm 2 5 mph 1015.3mb 46f 43f
6:30pm 6 9 mph 1015.1mb 46f 43f
6:24pm 2 7 mph 1015.2mb 46f 43f
6:18pm 3 8 mph 1015.1mb 46f 42f
6:12pm 3 7 mph 1015.1mb 46f 42f
6:06pm 2 7 mph 1015.1mb 46f 42f
6:00pm 2 8 mph 1015.2mb 46f 42f
5:54pm 3 7 mph 1015.1mb 46f 42f
5:48pm 1 6 mph 1015.1mb 46f 43f
5:36pm  -  2 mph 1015.3mb 46f 44f
5:30pm 1 2 mph 1015.2mb 46f 44f
5:24pm 1 2 mph 1014.8mb 46f 44f
5:18pm 1 2 mph 1014.6mb 46f 45f
5:12pm 1 3 mph 1014.4mb 46f 45f
5:06pm 3 5 mph 1014mb 46f 44f
5:00pm 3 5 mph 1014.1mb 46f 44f
4:54pm 2 3 mph 1014.1mb 46f 44f
4:48pm 2 3 mph 1014.3mb 46f 44f
4:36pm 2 6 mph 1014.3mb 46f 44f
4:30pm 2 5 mph 1014.3mb 46f 44f
4:24pm 1 5 mph 1014.6mb 46f 44f
4:18pm 3 5 mph 1014.7mb 46f 44f
4:12pm  -  1 mph 1015mb 46f 44f
4:06pm 1 2 mph 1015.2mb 46f 44f
4:00pm 1 2 mph 1015.4mb 46f 44f
3:36pm  -  2 mph 1015.4mb 46f 45f
3:30pm  -  2 mph 1015.5mb 46f 45f
3:24pm  -  2 mph 1015.4mb 46f 45f
3:18pm 1 5 mph 1015.4mb 46f 45f
3:12pm 1 2 mph 1015.5mb 46f 45f
3:06pm 2 5 mph 1015.7mb 46f 45f
3:00pm 2 3 mph 1015.8mb 46f 45f
2:54pm 2 5 mph 1016mb 46f 45f
2:48pm 3 5 mph 1016.2mb 46f 45f
2:36pm  -  1 mph 1016.3mb 46f 45f
2:30pm  -  2 mph 1016.3mb 46f 45f
2:24pm  -  2 mph 1016.5mb 46f 44f
2:18pm 2 3 mph 1016.4mb 46f 44f
2:12pm 2 3 mph 1016.3mb 46f 44f
2:06pm 1 3 mph 1016.5mb 46f 44f
2:00pm 3 6 mph 1016.5mb 46f 44f
1:54pm 5 6 mph 1016.7mb 46f 44f
1:48pm 3 5 mph 1016.9mb 46f 44f
1:36pm 3 5 mph 1017.2mb 46f 44f
1:30pm 2 3 mph 1017.6mb 46f 44f
1:24pm 1 2 mph 1017.7mb 46f 44f
1:18pm 2
mph
1017.8mb 46f 43f
1:12pm 2
mph
1017.8mb 46f 43f
1:06pm  -  1 mph 1017.9mb 46f 44f
1:00pm  -  2 mph 1018.1mb 46f 44f
12:54pm  -  1 mph 1018.4mb 46f 43f
12:48pm 2 5 mph 1018.6mb 46f 43f
12:36pm 2 5 mph 1019mb 46f 43f
12:30pm 3 6 mph 1019.1mb 46f 43f
12:24pm 6 7 mph 1019.1mb 46f 42f
12:18pm 7 8 mph 1019mb 46f 42f
12:12pm 6 7 mph 1019.1mb 46f 42f
12:06pm 6 7 mph 1019.3mb 46f 42f
12:00pm 3 6 mph 1019.6mb 46f 42f
11:54am 3 5 mph 1019.9mb 46f 42f
11:48am 3 6 mph 1020.1mb 46f 42f
11:36am 6 8 mph 1020.2mb 46f 42f
11:30am 6 9 mph 1020.3mb 46f 42f
11:24am 3 7 mph 1020.6mb 46f 42f
11:18am 5 7 mph 1020.7mb 46f 42f
11:12am 3 6 mph 1020.8mb 46f 42f
11:06am 6 9 mph 1020.9mb 46f 41f
11:00am 7 9 mph 1020.9mb 46f 41f
10:54am 7 9 mph 1021.1mb 46f 41f
10:48am 9 11 mph 1021.1mb 46f 41f
10:36am 7 10 mph 1021.2mb 46f 41f
10:30am 6 7 mph 1021.2mb 46f 41f
10:24am 6 8 mph 1021.2mb 46f 41f
10:18am 5 6 mph 1021.2mb 46f 41f
10:12am 5 6 mph 1021.2mb 46f 40f
10:06am 5 7 mph 1021.2mb 46f 40f
10:00am 5 7 mph 1021.2mb 46f 40f
9:54am 5 6 mph 1021.4mb 46f 40f